Aviation Digital Data Service (ADDS)

Output produced by METARs form (1004 UTC 19 January 2019)
found at http://www.aviationweather.gov/metar/data/
 
SUCA 190530Z 1906/2006 09010KT 9999 FEW030 TX24/1918Z TN15/1909Z
       
SUDU 191000Z 18005KT 9999 SCT023 15/14 Q1021
SUDU 190530Z 1906/2006 12010KT 9999 SCT020 TX24/1918Z TN15/1909Z
       
SUMU 191000Z 14006KT 9999 BKN020 19/13 Q1022 NOSIG
SUMU 190530Z 1906/2006 10010KT 9999 FEW020 TX22/1918Z TN18/1909Z
       
SUAA 190530Z 1906/2006 10010KT 9999 FEW020 TX22/1918Z TN18/1909Z
       
SULS 191000Z 12005KT 9999 SCT020 16/14 Q1021
SULS 190530Z 1906/2006 10010KT 9999 BKN020 TX22/1918 TN17/1909Z
       
TAF SURV 190530Z 1906/2006 13015KT 9999 BKN008 BKN060 TX23/1918Z TN17/1909Z 
     PROB40 
     TEMPO 1906/1910 3000 RADZ BKN005 OVC060 
     BECMG 1910/1912 SCT020
       
SUSO 190530Z 1906/2006 15008KT 9999 BKN020 TX25/1918Z TN16/1909Z